sensor_id;sensor_type;location;lat;lon;timestamp;temperature;humidity
35313;DHT22;21425;50.454;30.466;2022-12-07T00:01:18;-4.30;99.90
35313;DHT22;21425;50.454;30.466;2022-12-07T00:03:45;-4.40;99.90
35313;DHT22;21425;50.454;30.466;2022-12-07T00:06:13;-4.30;99.90
35313;DHT22;21425;50.454;30.466;2022-12-07T00:08:39;-4.30;99.90
35313;DHT22;21425;50.454;30.466;2022-12-07T00:13:32;-4.20;99.90
35313;DHT22;21425;50.454;30.466;2022-12-07T00:16:07;-4.40;99.90
35313;DHT22;21425;50.454;30.466;2022-12-07T00:18:33;-4.30;99.90
35313;DHT22;21425;50.454;30.466;2022-12-07T00:21:05;-4.30;99.90
35313;DHT22;21425;50.454;30.466;2022-12-07T00:23:32;-4.30;99.90
35313;DHT22;21425;50.454;30.466;2022-12-07T00:26:13;-4.20;99.90
35313;DHT22;21425;50.454;30.466;2022-12-07T00:28:40;-4.20;99.90
35313;DHT22;21425;50.454;30.466;2022-12-07T00:31:08;-4.20;99.90
35313;DHT22;21425;50.454;30.466;2022-12-07T00:33:34;-4.20;99.90
35313;DHT22;21425;50.454;30.466;2022-12-07T00:36:01;-4.20;99.90
35313;DHT22;21425;50.454;30.466;2022-12-07T00:38:31;-4.20;99.90
35313;DHT22;21425;50.454;30.466;2022-12-07T00:40:58;-4.00;99.90
35313;DHT22;21425;50.454;30.466;2022-12-07T00:43:24;-4.20;99.90
35313;DHT22;21425;50.454;30.466;2022-12-07T00:45:49;-4.20;99.90
35313;DHT22;21425;50.454;30.466;2022-12-07T00:48:15;-4.10;99.90
35313;DHT22;21425;50.454;30.466;2022-12-07T00:50:40;-4.10;99.90
35313;DHT22;21425;50.454;30.466;2022-12-07T00:53:06;-4.10;99.90
35313;DHT22;21425;50.454;30.466;2022-12-07T00:55:33;-3.90;99.90
35313;DHT22;21425;50.454;30.466;2022-12-07T00:57:59;-4.00;99.90
35313;DHT22;21425;50.454;30.466;2022-12-07T01:00:24;-3.80;99.90
35313;DHT22;21425;50.454;30.466;2022-12-07T01:02:50;-3.90;99.90
35313;DHT22;21425;50.454;30.466;2022-12-07T01:05:15;-3.90;99.90
35313;DHT22;21425;50.454;30.466;2022-12-07T01:07:41;-4.00;99.90
35313;DHT22;21425;50.454;30.466;2022-12-07T01:10:07;-3.90;99.90
35313;DHT22;21425;50.454;30.466;2022-12-07T01:12:32;-3.90;99.90
35313;DHT22;21425;50.454;30.466;2022-12-07T01:14:58;-3.80;99.90
35313;DHT22;21425;50.454;30.466;2022-12-07T01:17:23;-3.80;99.90
35313;DHT22;21425;50.454;30.466;2022-12-07T01:19:49;-3.80;99.90
35313;DHT22;21425;50.454;30.466;2022-12-07T01:22:15;-3.90;99.90
35313;DHT22;21425;50.454;30.466;2022-12-07T01:24:40;-3.80;99.90
35313;DHT22;21425;50.454;30.466;2022-12-07T01:27:06;-3.70;99.90
35313;DHT22;21425;50.454;30.466;2022-12-07T01:29:31;-3.80;99.90
35313;DHT22;21425;50.454;30.466;2022-12-07T01:31:57;-3.70;99.90
35313;DHT22;21425;50.454;30.466;2022-12-07T01:34:22;-3.60;99.90
35313;DHT22;21425;50.454;30.466;2022-12-07T01:36:48;-3.80;99.90
35313;DHT22;21425;50.454;30.466;2022-12-07T01:39:13;-3.80;99.90
35313;DHT22;21425;50.454;30.466;2022-12-07T01:41:40;-3.80;99.90
35313;DHT22;21425;50.454;30.466;2022-12-07T01:46:37;-3.70;99.90
35313;DHT22;21425;50.454;30.466;2022-12-07T01:49:08;-3.70;99.90
35313;DHT22;21425;50.454;30.466;2022-12-07T01:51:36;-3.70;99.90
35313;DHT22;21425;50.454;30.466;2022-12-07T01:54:02;-3.60;99.90
35313;DHT22;21425;50.454;30.466;2022-12-07T01:56:29;-3.60;99.90
35313;DHT22;21425;50.454;30.466;2022-12-07T01:58:57;-3.50;99.90
35313;DHT22;21425;50.454;30.466;2022-12-07T02:01:24;-3.50;99.90
35313;DHT22;21425;50.454;30.466;2022-12-07T02:03:50;-3.40;99.90
35313;DHT22;21425;50.454;30.466;2022-12-07T02:06:22;-3.50;99.90
35313;DHT22;21425;50.454;30.466;2022-12-07T02:08:49;-3.30;99.90
35313;DHT22;21425;50.454;30.466;2022-12-07T02:11:16;-3.20;99.90
35313;DHT22;21425;50.454;30.466;2022-12-07T02:13:43;-3.20;99.90
35313;DHT22;21425;50.454;30.466;2022-12-07T02:16:44;-3.20;99.90
35313;DHT22;21425;50.454;30.466;2022-12-07T02:19:39;-3.40;99.90
35313;DHT22;21425;50.454;30.466;2022-12-07T02:25:26;-3.20;99.90
35313;DHT22;21425;50.454;30.466;2022-12-07T02:30:35;-3.20;99.90
35313;DHT22;21425;50.454;30.466;2022-12-07T02:33:28;-3.20;99.90
35313;DHT22;21425;50.454;30.466;2022-12-07T02:36:01;-3.20;99.90
35313;DHT22;21425;50.454;30.466;2022-12-07T02:38:50;-3.30;99.90
35313;DHT22;21425;50.454;30.466;2022-12-07T02:41:17;-3.30;99.90
35313;DHT22;21425;50.454;30.466;2022-12-07T02:43:50;-3.20;99.90
35313;DHT22;21425;50.454;30.466;2022-12-07T02:46:21;-3.20;99.90
35313;DHT22;21425;50.454;30.466;2022-12-07T02:48:47;-3.20;99.90
35313;DHT22;21425;50.454;30.466;2022-12-07T02:51:14;-3.20;99.90
35313;DHT22;21425;50.454;30.466;2022-12-07T02:53:43;-3.30;99.90
35313;DHT22;21425;50.454;30.466;2022-12-07T02:59:01;-3.10;99.90
35313;DHT22;21425;50.454;30.466;2022-12-07T03:01:37;-3.10;99.90
35313;DHT22;21425;50.454;30.466;2022-12-07T03:04:29;-3.20;99.90
35313;DHT22;21425;50.454;30.466;2022-12-07T03:07:39;-3.10;99.90
35313;DHT22;21425;50.454;30.466;2022-12-07T03:13:30;-3.20;99.90
35313;DHT22;21425;50.454;30.466;2022-12-07T03:16:05;-3.10;99.90
35313;DHT22;21425;50.454;30.466;2022-12-07T03:18:38;-3.20;99.90
35313;DHT22;21425;50.454;30.466;2022-12-07T03:21:10;-3.20;99.90
35313;DHT22;21425;50.454;30.466;2022-12-07T03:23:38;-3.10;99.90
35313;DHT22;21425;50.454;30.466;2022-12-07T03:26:09;-3.20;99.90
35313;DHT22;21425;50.454;30.466;2022-12-07T03:28:40;-3.20;99.90
35313;DHT22;21425;50.454;30.466;2022-12-07T03:31:14;-3.20;99.90
35313;DHT22;21425;50.454;30.466;2022-12-07T03:33:59;-3.30;99.90
35313;DHT22;21425;50.454;30.466;2022-12-07T03:36:37;-3.20;99.90
35313;DHT22;21425;50.454;30.466;2022-12-07T03:42:18;-3.10;99.90
35313;DHT22;21425;50.454;30.466;2022-12-07T03:44:45;-3.20;99.90
35313;DHT22;21425;50.454;30.466;2022-12-07T03:50:02;-3.10;99.90
35313;DHT22;21425;50.454;30.466;2022-12-07T03:52:44;-3.20;99.90
35313;DHT22;21425;50.454;30.466;2022-12-07T03:55:13;-3.20;99.90
35313;DHT22;21425;50.454;30.466;2022-12-07T03:57:41;-3.10;99.90
35313;DHT22;21425;50.454;30.466;2022-12-07T04:00:10;-3.20;99.90
35313;DHT22;21425;50.454;30.466;2022-12-07T04:02:35;-3.10;99.90
35313;DHT22;21425;50.454;30.466;2022-12-07T04:05:02;-3.20;99.90
35313;DHT22;21425;50.454;30.466;2022-12-07T04:07:28;-3.10;99.90
35313;DHT22;21425;50.454;30.466;2022-12-07T04:09:53;-3.10;99.90
35313;DHT22;21425;50.454;30.466;2022-12-07T04:12:21;-3.10;99.90
35313;DHT22;21425;50.454;30.466;2022-12-07T04:14:46;-3.20;99.90
35313;DHT22;21425;50.454;30.466;2022-12-07T04:17:12;-3.20;99.90
35313;DHT22;21425;50.454;30.466;2022-12-07T04:19:38;-3.20;99.90
35313;DHT22;21425;50.454;30.466;2022-12-07T04:22:04;-3.10;99.90
35313;DHT22;21425;50.454;30.466;2022-12-07T04:24:30;-3.30;99.90
35313;DHT22;21425;50.454;30.466;2022-12-07T04:26:56;-3.20;99.90
35313;DHT22;21425;50.454;30.466;2022-12-07T04:29:22;-3.40;99.90
35313;DHT22;21425;50.454;30.466;2022-12-07T04:31:48;-3.10;99.90
35313;DHT22;21425;50.454;30.466;2022-12-07T04:34:15;-3.30;99.90
35313;DHT22;21425;50.454;30.466;2022-12-07T04:36:41;-3.30;99.90
35313;DHT22;21425;50.454;30.466;2022-12-07T04:39:09;-3.30;99.90
35313;DHT22;21425;50.454;30.466;2022-12-07T04:41:38;-3.10;99.90
35313;DHT22;21425;50.454;30.466;2022-12-07T04:44:04;-3.20;99.90
35313;DHT22;21425;50.454;30.466;2022-12-07T04:46:33;-3.20;99.90
35313;DHT22;21425;50.454;30.466;2022-12-07T04:48:59;-3.20;99.90
35313;DHT22;21425;50.454;30.466;2022-12-07T04:51:26;-3.20;99.90
35313;DHT22;21425;50.454;30.466;2022-12-07T04:53:52;-3.30;99.90
35313;DHT22;21425;50.454;30.466;2022-12-07T04:56:18;-3.20;99.90
35313;DHT22;21425;50.454;30.466;2022-12-07T04:58:46;-3.10;99.90
35313;DHT22;21425;50.454;30.466;2022-12-07T05:01:13;-3.20;99.90
35313;DHT22;21425;50.454;30.466;2022-12-07T05:03:39;-3.10;99.90
35313;DHT22;21425;50.454;30.466;2022-12-07T05:06:05;-3.10;99.90
35313;DHT22;21425;50.454;30.466;2022-12-07T05:08:34;-3.10;99.90
35313;DHT22;21425;50.454;30.466;2022-12-07T05:11:01;-3.10;99.90
35313;DHT22;21425;50.454;30.466;2022-12-07T05:13:27;-3.20;99.90
35313;DHT22;21425;50.454;30.466;2022-12-07T05:15:53;-3.10;99.90
35313;DHT22;21425;50.454;30.466;2022-12-07T05:18:18;-3.10;99.90
35313;DHT22;21425;50.454;30.466;2022-12-07T05:20:44;-3.20;99.90
35313;DHT22;21425;50.454;30.466;2022-12-07T05:23:10;-3.10;99.90
35313;DHT22;21425;50.454;30.466;2022-12-07T05:25:36;-3.20;99.90
35313;DHT22;21425;50.454;30.466;2022-12-07T05:28:02;-3.10;99.90
35313;DHT22;21425;50.454;30.466;2022-12-07T05:30:29;-3.20;99.90
35313;DHT22;21425;50.454;30.466;2022-12-07T05:32:54;-3.30;99.90
35313;DHT22;21425;50.454;30.466;2022-12-07T05:35:20;-3.10;99.90
35313;DHT22;21425;50.454;30.466;2022-12-07T05:37:46;-3.20;99.90
35313;DHT22;21425;50.454;30.466;2022-12-07T05:40:14;-3.10;99.90
35313;DHT22;21425;50.454;30.466;2022-12-07T05:42:40;-3.20;99.90
35313;DHT22;21425;50.454;30.466;2022-12-07T05:45:06;-3.10;99.90
35313;DHT22;21425;50.454;30.466;2022-12-07T05:47:32;-3.10;99.90
35313;DHT22;21425;50.454;30.466;2022-12-07T05:49:58;-3.10;99.90
35313;DHT22;21425;50.454;30.466;2022-12-07T05:52:23;-3.10;99.90
35313;DHT22;21425;50.454;30.466;2022-12-07T05:54:49;-3.10;99.90
35313;DHT22;21425;50.454;30.466;2022-12-07T05:57:15;-3.20;99.90
35313;DHT22;21425;50.454;30.466;2022-12-07T05:59:40;-3.00;99.90
35313;DHT22;21425;50.454;30.466;2022-12-07T06:02:08;-3.20;99.90
35313;DHT22;21425;50.454;30.466;2022-12-07T06:04:36;-3.10;99.90
35313;DHT22;21425;50.454;30.466;2022-12-07T06:07:03;-3.10;99.90
35313;DHT22;21425;50.454;30.466;2022-12-07T06:09:29;-3.10;99.90
35313;DHT22;21425;50.454;30.466;2022-12-07T06:11:56;-3.10;99.90
35313;DHT22;21425;50.454;30.466;2022-12-07T06:14:40;-3.10;99.90
35313;DHT22;21425;50.454;30.466;2022-12-07T06:17:06;-3.10;99.90
35313;DHT22;21425;50.454;30.466;2022-12-07T06:19:32;-3.10;99.90
35313;DHT22;21425;50.454;30.466;2022-12-07T06:21:58;-3.10;99.90
35313;DHT22;21425;50.454;30.466;2022-12-07T06:24:23;-3.10;99.90
35313;DHT22;21425;50.454;30.466;2022-12-07T06:26:49;-3.00;99.90
35313;DHT22;21425;50.454;30.466;2022-12-07T06:29:16;-3.00;99.90
35313;DHT22;21425;50.454;30.466;2022-12-07T06:31:41;-3.00;99.90
35313;DHT22;21425;50.454;30.466;2022-12-07T06:34:11;-3.00;99.90
35313;DHT22;21425;50.454;30.466;2022-12-07T06:36:37;-1.90;99.90
35313;DHT22;21425;50.454;30.466;2022-12-07T06:39:03;-3.00;99.90
35313;DHT22;21425;50.454;30.466;2022-12-07T06:41:29;-3.00;99.90
35313;DHT22;21425;50.454;30.466;2022-12-07T06:43:55;-3.00;99.90
35313;DHT22;21425;50.454;30.466;2022-12-07T06:46:20;-3.00;99.90
35313;DHT22;21425;50.454;30.466;2022-12-07T06:48:47;-3.00;99.90
35313;DHT22;21425;50.454;30.466;2022-12-07T06:51:12;-2.90;99.90
35313;DHT22;21425;50.454;30.466;2022-12-07T06:53:38;-3.00;99.90
35313;DHT22;21425;50.454;30.466;2022-12-07T06:56:04;-2.90;99.90
35313;DHT22;21425;50.454;30.466;2022-12-07T06:58:30;-2.90;99.90
35313;DHT22;21425;50.454;30.466;2022-12-07T07:00:56;-2.70;99.90
35313;DHT22;21425;50.454;30.466;2022-12-07T07:03:21;-2.70;99.90
35313;DHT22;21425;50.454;30.466;2022-12-07T07:05:47;-2.60;99.90
35313;DHT22;21425;50.454;30.466;2022-12-07T07:08:13;-2.60;99.90
35313;DHT22;21425;50.454;30.466;2022-12-07T07:10:39;-2.60;99.90
35313;DHT22;21425;50.454;30.466;2022-12-07T07:13:05;-2.60;99.90
35313;DHT22;21425;50.454;30.466;2022-12-07T07:15:31;-2.60;99.90
35313;DHT22;21425;50.454;30.466;2022-12-07T07:17:57;-2.60;99.90
35313;DHT22;21425;50.454;30.466;2022-12-07T07:20:23;-2.60;99.90
35313;DHT22;21425;50.454;30.466;2022-12-07T07:22:49;-2.50;99.90
35313;DHT22;21425;50.454;30.466;2022-12-07T07:25:15;-2.60;99.90
35313;DHT22;21425;50.454;30.466;2022-12-07T07:27:41;-2.50;99.90
35313;DHT22;21425;50.454;30.466;2022-12-07T07:30:07;-2.70;99.90
35313;DHT22;21425;50.454;30.466;2022-12-07T07:32:33;-2.70;99.90
35313;DHT22;21425;50.454;30.466;2022-12-07T07:34:58;-2.60;99.90
35313;DHT22;21425;50.454;30.466;2022-12-07T07:37:24;-2.60;99.90
35313;DHT22;21425;50.454;30.466;2022-12-07T07:39:50;-2.70;99.90
35313;DHT22;21425;50.454;30.466;2022-12-07T07:42:15;-2.40;99.90
35313;DHT22;21425;50.454;30.466;2022-12-07T07:44:41;-2.50;99.90
35313;DHT22;21425;50.454;30.466;2022-12-07T07:47:06;-2.50;99.90
35313;DHT22;21425;50.454;30.466;2022-12-07T07:49:32;-2.50;99.90
35313;DHT22;21425;50.454;30.466;2022-12-07T07:51:58;-2.60;99.90
35313;DHT22;21425;50.454;30.466;2022-12-07T07:54:23;-2.60;99.90
35313;DHT22;21425;50.454;30.466;2022-12-07T07:56:49;-2.60;99.90
35313;DHT22;21425;50.454;30.466;2022-12-07T07:59:15;-2.50;99.90
35313;DHT22;21425;50.454;30.466;2022-12-07T08:01:41;-2.40;99.90
35313;DHT22;21425;50.454;30.466;2022-12-07T08:04:06;-2.30;99.90
35313;DHT22;21425;50.454;30.466;2022-12-07T08:06:32;-2.50;99.90
35313;DHT22;21425;50.454;30.466;2022-12-07T08:08:58;-2.50;99.90
35313;DHT22;21425;50.454;30.466;2022-12-07T08:11:24;-2.40;99.90
35313;DHT22;21425;50.454;30.466;2022-12-07T08:13:49;-2.40;99.90
35313;DHT22;21425;50.454;30.466;2022-12-07T08:16:15;-2.40;99.90
35313;DHT22;21425;50.454;30.466;2022-12-07T08:18:42;-2.40;99.90
35313;DHT22;21425;50.454;30.466;2022-12-07T08:21:14;-2.40;99.90
35313;DHT22;21425;50.454;30.466;2022-12-07T08:23:40;-2.30;99.90
35313;DHT22;21425;50.454;30.466;2022-12-07T08:26:08;-2.30;99.90
35313;DHT22;21425;50.454;30.466;2022-12-07T08:28:34;-2.20;99.90
35313;DHT22;21425;50.454;30.466;2022-12-07T08:31:05;-2.20;99.90
35313;DHT22;21425;50.454;30.466;2022-12-07T08:33:31;-2.10;99.90
35313;DHT22;21425;50.454;30.466;2022-12-07T08:36:06;-2.10;99.90
35313;DHT22;21425;50.454;30.466;2022-12-07T08:38:33;-2.00;99.90
35313;DHT22;21425;50.454;30.466;2022-12-07T08:40:59;-1.90;99.90
35313;DHT22;21425;50.454;30.466;2022-12-07T08:43:25;-1.80;99.90
35313;DHT22;21425;50.454;30.466;2022-12-07T08:46:42;-1.80;99.90
35313;DHT22;21425;50.454;30.466;2022-12-07T08:49:20;-1.80;99.90
35313;DHT22;21425;50.454;30.466;2022-12-07T08:51:44;-1.70;99.90
35313;DHT22;21425;50.454;30.466;2022-12-07T08:54:13;-1.60;99.90
35313;DHT22;21425;50.454;30.466;2022-12-07T08:56:39;-1.70;99.90
35313;DHT22;21425;50.454;30.466;2022-12-07T08:59:06;-1.70;99.90
35313;DHT22;21425;50.454;30.466;2022-12-07T09:01:32;-1.60;99.90
35313;DHT22;21425;50.454;30.466;2022-12-07T09:03:58;-1.50;99.90
35313;DHT22;21425;50.454;30.466;2022-12-07T09:06:24;-1.40;99.90
35313;DHT22;21425;50.454;30.466;2022-12-07T09:08:52;-1.40;99.90
35313;DHT22;21425;50.454;30.466;2022-12-07T09:11:19;-1.30;99.90
35313;DHT22;21425;50.454;30.466;2022-12-07T09:13:45;-1.20;99.90
35313;DHT22;21425;50.454;30.466;2022-12-07T09:16:10;-1.10;99.90
35313;DHT22;21425;50.454;30.466;2022-12-07T09:18:36;-1.00;99.90
35313;DHT22;21425;50.454;30.466;2022-12-07T09:21:03;-1.00;99.90
35313;DHT22;21425;50.454;30.466;2022-12-07T09:23:29;-1.00;99.90
35313;DHT22;21425;50.454;30.466;2022-12-07T09:25:58;-1.00;99.90
35313;DHT22;21425;50.454;30.466;2022-12-07T09:28:24;-1.00;99.90
35313;DHT22;21425;50.454;30.466;2022-12-07T09:30:49;-0.80;99.90
35313;DHT22;21425;50.454;30.466;2022-12-07T09:33:15;-0.90;99.90
35313;DHT22;21425;50.454;30.466;2022-12-07T09:35:48;-0.80;99.90
35313;DHT22;21425;50.454;30.466;2022-12-07T09:38:14;-0.80;99.90
35313;DHT22;21425;50.454;30.466;2022-12-07T09:40:40;-1.10;99.90
35313;DHT22;21425;50.454;30.466;2022-12-07T09:43:14;-1.10;99.90
35313;DHT22;21425;50.454;30.466;2022-12-07T09:45:40;-0.90;99.90
35313;DHT22;21425;50.454;30.466;2022-12-07T09:48:16;-1.10;99.90
35313;DHT22;21425;50.454;30.466;2022-12-07T09:50:42;-1.20;99.90
35313;DHT22;21425;50.454;30.466;2022-12-07T09:53:16;-1.30;99.90
35313;DHT22;21425;50.454;30.466;2022-12-07T09:55:45;0.40;99.90
35313;DHT22;21425;50.454;30.466;2022-12-07T09:58:19;-1.20;99.90
35313;DHT22;21425;50.454;30.466;2022-12-07T10:00:47;-1.30;99.90
35313;DHT22;21425;50.454;30.466;2022-12-07T10:03:13;-1.20;99.90
35313;DHT22;21425;50.454;30.466;2022-12-07T10:05:42;-1.10;99.90
35313;DHT22;21425;50.454;30.466;2022-12-07T10:08:13;-1.00;99.90
35313;DHT22;21425;50.454;30.466;2022-12-07T10:10:40;-0.90;99.90
35313;DHT22;21425;50.454;30.466;2022-12-07T10:13:11;-0.90;99.90
35313;DHT22;21425;50.454;30.466;2022-12-07T10:15:56;-0.80;99.90
35313;DHT22;21425;50.454;30.466;2022-12-07T10:18:32;-0.90;99.90
35313;DHT22;21425;50.454;30.466;2022-12-07T10:23:29;-0.90;99.90
35313;DHT22;21425;50.454;30.466;2022-12-07T10:25:54;-0.80;99.90
35313;DHT22;21425;50.454;30.466;2022-12-07T10:28:21;-0.80;99.90
35313;DHT22;21425;50.454;30.466;2022-12-07T10:31:02;-0.90;99.90
35313;DHT22;21425;50.454;30.466;2022-12-07T10:33:38;-1.00;99.90
35313;DHT22;21425;50.454;30.466;2022-12-07T10:36:22;-1.00;99.90
35313;DHT22;21425;50.454;30.466;2022-12-07T10:38:59;-1.10;99.90
35313;DHT22;21425;50.454;30.466;2022-12-07T10:41:25;-1.10;99.90
35313;DHT22;21425;50.454;30.466;2022-12-07T10:43:56;-1.20;99.90
35313;DHT22;21425;50.454;30.466;2022-12-07T10:46:51;-1.30;99.90
35313;DHT22;21425;50.454;30.466;2022-12-07T10:55:07;-1.30;99.90
35313;DHT22;21425;50.454;30.466;2022-12-07T11:00:19;-1.30;99.90
35313;DHT22;21425;50.454;30.466;2022-12-07T11:03:02;-1.10;99.90
35313;DHT22;21425;50.454;30.466;2022-12-07T11:11:00;-1.20;99.90
35313;DHT22;21425;50.454;30.466;2022-12-07T11:14:03;-1.20;99.90
35313;DHT22;21425;50.454;30.466;2022-12-07T11:22:03;-1.20;99.90
35313;DHT22;21425;50.454;30.466;2022-12-07T11:24:56;-1.20;99.90
35313;DHT22;21425;50.454;30.466;2022-12-07T11:27:42;-1.20;99.90
35313;DHT22;21425;50.454;30.466;2022-12-07T11:30:27;-1.30;99.90
35313;DHT22;21425;50.454;30.466;2022-12-07T11:35:24;-1.20;99.90
35313;DHT22;21425;50.454;30.466;2022-12-07T11:38:02;-1.30;99.90
35313;DHT22;21425;50.454;30.466;2022-12-07T11:40:36;-1.20;99.90
35313;DHT22;21425;50.454;30.466;2022-12-07T11:45:56;-0.60;99.90
35313;DHT22;21425;50.454;30.466;2022-12-07T11:48:33;-1.40;99.90
35313;DHT22;21425;50.454;30.466;2022-12-07T11:51:01;-1.30;99.90
35313;DHT22;21425;50.454;30.466;2022-12-07T11:53:37;-1.30;99.90
35313;DHT22;21425;50.454;30.466;2022-12-07T11:56:14;-1.10;99.90
35313;DHT22;21425;50.454;30.466;2022-12-07T12:06:43;-1.10;99.90
35313;DHT22;21425;50.454;30.466;2022-12-07T12:09:24;-1.10;99.90
35313;DHT22;21425;50.454;30.466;2022-12-07T12:20:45;-1.20;99.90
35313;DHT22;21425;50.454;30.466;2022-12-07T12:25:49;-1.30;99.90
35313;DHT22;21425;50.454;30.466;2022-12-07T12:28:32;-1.30;99.90
35313;DHT22;21425;50.454;30.466;2022-12-07T12:31:33;-1.40;99.90
35313;DHT22;21425;50.454;30.466;2022-12-07T12:34:03;-1.40;99.90
35313;DHT22;21425;50.454;30.466;2022-12-07T12:46:48;-1.40;99.90
35313;DHT22;21425;50.454;30.466;2022-12-07T12:56:55;-1.40;99.90
35313;DHT22;21425;50.454;30.466;2022-12-07T16:50:30;-1.30;99.90
35313;DHT22;21425;50.454;30.466;2022-12-07T16:52:55;-1.20;99.90
35313;DHT22;21425;50.454;30.466;2022-12-07T16:55:21;-1.30;99.90
35313;DHT22;21425;50.454;30.466;2022-12-07T16:57:46;-1.30;99.90
35313;DHT22;21425;50.454;30.466;2022-12-07T17:00:12;-1.30;99.90
35313;DHT22;21425;50.454;30.466;2022-12-07T17:02:38;-1.40;99.90
35313;DHT22;21425;50.454;30.466;2022-12-07T17:05:03;-1.30;99.90
35313;DHT22;21425;50.454;30.466;2022-12-07T17:07:29;-1.40;99.90
35313;DHT22;21425;50.454;30.466;2022-12-07T17:09:55;-1.30;99.90
35313;DHT22;21425;50.454;30.466;2022-12-07T17:12:20;-1.30;99.90
35313;DHT22;21425;50.454;30.466;2022-12-07T17:14:46;-1.30;99.90
35313;DHT22;21425;50.454;30.466;2022-12-07T17:17:30;-1.40;99.90
35313;DHT22;21425;50.454;30.466;2022-12-07T17:19:56;-1.20;99.90
35313;DHT22;21425;50.454;30.466;2022-12-07T17:22:21;-1.20;99.90
35313;DHT22;21425;50.454;30.466;2022-12-07T17:24:47;-1.20;99.90
35313;DHT22;21425;50.454;30.466;2022-12-07T17:27:12;-1.20;99.90
35313;DHT22;21425;50.454;30.466;2022-12-07T17:29:38;-1.20;99.90
35313;DHT22;21425;50.454;30.466;2022-12-07T17:32:04;-1.10;99.90
35313;DHT22;21425;50.454;30.466;2022-12-07T17:34:30;-1.10;99.90
35313;DHT22;21425;50.454;30.466;2022-12-07T17:36:55;-1.20;99.90
35313;DHT22;21425;50.454;30.466;2022-12-07T17:39:21;-1.20;99.90
35313;DHT22;21425;50.454;30.466;2022-12-07T17:41:46;-1.20;99.90
35313;DHT22;21425;50.454;30.466;2022-12-07T17:44:31;-1.10;99.90
35313;DHT22;21425;50.454;30.466;2022-12-07T17:46:57;-1.20;99.90
35313;DHT22;21425;50.454;30.466;2022-12-07T17:49:24;-1.20;99.90
35313;DHT22;21425;50.454;30.466;2022-12-07T17:51:50;-1.20;99.90
35313;DHT22;21425;50.454;30.466;2022-12-07T17:54:35;-1.20;99.90
35313;DHT22;21425;50.454;30.466;2022-12-07T17:57:01;-1.20;99.90
35313;DHT22;21425;50.454;30.466;2022-12-07T17:59:26;-1.20;99.90
35313;DHT22;21425;50.454;30.466;2022-12-07T18:01:52;-1.10;99.90
35313;DHT22;21425;50.454;30.466;2022-12-07T18:04:18;-1.10;99.90
35313;DHT22;21425;50.454;30.466;2022-12-07T18:06:44;-1.00;99.90
35313;DHT22;21425;50.454;30.466;2022-12-07T18:09:09;-1.20;99.90
35313;DHT22;21425;50.454;30.466;2022-12-07T18:11:35;-1.10;99.90
35313;DHT22;21425;50.454;30.466;2022-12-07T18:16:29;-1.10;99.90
35313;DHT22;21425;50.454;30.466;2022-12-07T18:18:59;-1.10;99.90
35313;DHT22;21425;50.454;30.466;2022-12-07T18:21:26;-1.20;99.90
35313;DHT22;21425;50.454;30.466;2022-12-07T18:23:55;-1.10;99.90
35313;DHT22;21425;50.454;30.466;2022-12-07T18:26:23;-1.10;99.90
35313;DHT22;21425;50.454;30.466;2022-12-07T18:28:49;-1.10;99.90
35313;DHT22;21425;50.454;30.466;2022-12-07T18:31:15;-1.10;99.90
35313;DHT22;21425;50.454;30.466;2022-12-07T18:33:41;-1.10;99.90
35313;DHT22;21425;50.454;30.466;2022-12-07T18:36:07;-1.10;99.90
35313;DHT22;21425;50.454;30.466;2022-12-07T18:38:34;-1.10;99.90
35313;DHT22;21425;50.454;30.466;2022-12-07T18:41:00;-1.10;99.90
35313;DHT22;21425;50.454;30.466;2022-12-07T18:43:27;-1.10;99.90
35313;DHT22;21425;50.454;30.466;2022-12-07T18:45:53;-1.10;99.90
35313;DHT22;21425;50.454;30.466;2022-12-07T18:48:20;-1.10;99.90
35313;DHT22;21425;50.454;30.466;2022-12-07T18:50:47;-1.20;99.90
35313;DHT22;21425;50.454;30.466;2022-12-07T18:53:23;-1.10;99.90
35313;DHT22;21425;50.454;30.466;2022-12-07T18:55:48;-0.90;99.90
35313;DHT22;21425;50.454;30.466;2022-12-07T18:58:14;-1.00;99.90
35313;DHT22;21425;50.454;30.466;2022-12-07T19:00:39;-1.00;99.90
35313;DHT22;21425;50.454;30.466;2022-12-07T19:03:05;-1.10;99.90
35313;DHT22;21425;50.454;30.466;2022-12-07T19:05:30;-1.00;99.90
35313;DHT22;21425;50.454;30.466;2022-12-07T19:07:56;-1.00;99.90
35313;DHT22;21425;50.454;30.466;2022-12-07T19:10:21;-1.00;99.90
35313;DHT22;21425;50.454;30.466;2022-12-07T19:12:48;-0.90;99.90
35313;DHT22;21425;50.454;30.466;2022-12-07T19:15:14;-1.00;99.90
35313;DHT22;21425;50.454;30.466;2022-12-07T19:17:40;-1.00;99.90
35313;DHT22;21425;50.454;30.466;2022-12-07T19:20:10;-0.90;99.90
35313;DHT22;21425;50.454;30.466;2022-12-07T19:22:36;-1.00;99.90
35313;DHT22;21425;50.454;30.466;2022-12-07T19:25:03;-1.00;99.90
35313;DHT22;21425;50.454;30.466;2022-12-07T19:27:29;-0.90;99.90
35313;DHT22;21425;50.454;30.466;2022-12-07T19:29:56;-0.90;99.90
35313;DHT22;21425;50.454;30.466;2022-12-07T19:32:22;-1.00;99.90
35313;DHT22;21425;50.454;30.466;2022-12-07T19:34:48;-0.90;99.90
35313;DHT22;21425;50.454;30.466;2022-12-07T19:37:14;-0.80;99.90
35313;DHT22;21425;50.454;30.466;2022-12-07T19:39:40;-0.90;99.90
35313;DHT22;21425;50.454;30.466;2022-12-07T19:42:08;-0.90;99.90
35313;DHT22;21425;50.454;30.466;2022-12-07T19:44:34;0.20;99.90
35313;DHT22;21425;50.454;30.466;2022-12-07T19:47:02;-0.90;99.90
35313;DHT22;21425;50.454;30.466;2022-12-07T19:49:29;-0.90;99.90
35313;DHT22;21425;50.454;30.466;2022-12-07T19:52:00;-0.90;99.90
35313;DHT22;21425;50.454;30.466;2022-12-07T19:54:29;-0.90;99.90
35313;DHT22;21425;50.454;30.466;2022-12-07T19:56:56;-0.80;99.90
35313;DHT22;21425;50.454;30.466;2022-12-07T19:59:24;-0.90;99.90
35313;DHT22;21425;50.454;30.466;2022-12-07T20:01:50;-0.80;99.90
35313;DHT22;21425;50.454;30.466;2022-12-07T20:04:19;-0.80;99.90
35313;DHT22;21425;50.454;30.466;2022-12-07T20:06:46;-0.80;99.90
35313;DHT22;21425;50.454;30.466;2022-12-07T20:09:12;-0.90;99.90
35313;DHT22;21425;50.454;30.466;2022-12-07T20:11:38;-0.70;99.90
35313;DHT22;21425;50.454;30.466;2022-12-07T20:14:22;-0.80;99.90
35313;DHT22;21425;50.454;30.466;2022-12-07T20:16:48;-0.80;99.90
35313;DHT22;21425;50.454;30.466;2022-12-07T20:19:14;-0.80;99.90
35313;DHT22;21425;50.454;30.466;2022-12-07T20:21:41;-0.80;99.90
35313;DHT22;21425;50.454;30.466;2022-12-07T20:24:11;-0.80;99.90
35313;DHT22;21425;50.454;30.466;2022-12-07T20:26:37;-0.80;99.90
35313;DHT22;21425;50.454;30.466;2022-12-07T20:29:07;-0.80;99.90
35313;DHT22;21425;50.454;30.466;2022-12-07T20:31:34;-0.70;99.90
35313;DHT22;21425;50.454;30.466;2022-12-07T20:33:59;-0.70;99.90
35313;DHT22;21425;50.454;30.466;2022-12-07T20:36:25;-0.80;99.90
35313;DHT22;21425;50.454;30.466;2022-12-07T20:38:51;-0.70;99.90
35313;DHT22;21425;50.454;30.466;2022-12-07T20:41:17;-0.70;99.90
35313;DHT22;21425;50.454;30.466;2022-12-07T20:44:02;-0.70;99.90
35313;DHT22;21425;50.454;30.466;2022-12-07T20:46:28;-0.70;99.90